sensor_id;sensor_type;location;lat;lon;timestamp;P1;durP1;ratioP1;P2;durP2;ratioP2
11533;SDS011;5823;50.588;8.462;2023-05-21T00:00:14;0.60;;;0.60;;
11533;SDS011;5823;50.588;8.462;2023-05-21T00:02:40;0.50;;;0.50;;
11533;SDS011;5823;50.588;8.462;2023-05-21T00:05:07;0.55;;;0.55;;
11533;SDS011;5823;50.588;8.462;2023-05-21T00:07:35;0.50;;;0.50;;
11533;SDS011;5823;50.588;8.462;2023-05-21T00:10:03;0.60;;;0.60;;
11533;SDS011;5823;50.588;8.462;2023-05-21T00:12:29;1.15;;;1.05;;
11533;SDS011;5823;50.588;8.462;2023-05-21T00:14:56;0.80;;;0.80;;
11533;SDS011;5823;50.588;8.462;2023-05-21T00:17:22;1.25;;;1.13;;
11533;SDS011;5823;50.588;8.462;2023-05-21T00:19:50;1.00;;;0.90;;
11533;SDS011;5823;50.588;8.462;2023-05-21T00:22:16;1.17;;;1.00;;
11533;SDS011;5823;50.588;8.462;2023-05-21T00:24:42;0.88;;;0.88;;
11533;SDS011;5823;50.588;8.462;2023-05-21T00:27:11;1.10;;;1.00;;
11533;SDS011;5823;50.588;8.462;2023-05-21T00:29:37;1.10;;;1.00;;
11533;SDS011;5823;50.588;8.462;2023-05-21T00:32:04;1.10;;;1.00;;
11533;SDS011;5823;50.588;8.462;2023-05-21T00:34:30;0.90;;;0.80;;
11533;SDS011;5823;50.588;8.462;2023-05-21T00:36:56;0.68;;;0.68;;
11533;SDS011;5823;50.588;8.462;2023-05-21T00:39:22;1.08;;;0.98;;
11533;SDS011;5823;50.588;8.462;2023-05-21T00:41:49;0.85;;;0.85;;
11533;SDS011;5823;50.588;8.462;2023-05-21T00:44:16;0.60;;;0.60;;
11533;SDS011;5823;50.588;8.462;2023-05-21T00:46:43;0.60;;;0.60;;
11533;SDS011;5823;50.588;8.462;2023-05-21T00:49:12;0.70;;;0.70;;
11533;SDS011;5823;50.588;8.462;2023-05-21T00:51:39;0.55;;;0.55;;
11533;SDS011;5823;50.588;8.462;2023-05-21T00:54:05;0.50;;;0.50;;
11533;SDS011;5823;50.588;8.462;2023-05-21T00:56:32;0.70;;;0.70;;
11533;SDS011;5823;50.588;8.462;2023-05-21T00:58:58;0.77;;;0.77;;
11533;SDS011;5823;50.588;8.462;2023-05-21T01:01:30;0.75;;;0.75;;
11533;SDS011;5823;50.588;8.462;2023-05-21T01:03:57;1.00;;;0.95;;
11533;SDS011;5823;50.588;8.462;2023-05-21T01:06:26;0.77;;;0.77;;
11533;SDS011;5823;50.588;8.462;2023-05-21T01:08:53;0.63;;;0.63;;
11533;SDS011;5823;50.588;8.462;2023-05-21T01:11:20;0.90;;;0.90;;
11533;SDS011;5823;50.588;8.462;2023-05-21T01:13:48;0.80;;;0.70;;
11533;SDS011;5823;50.588;8.462;2023-05-21T01:16:15;0.70;;;0.70;;
11533;SDS011;5823;50.588;8.462;2023-05-21T01:18:43;0.77;;;0.77;;
11533;SDS011;5823;50.588;8.462;2023-05-21T01:21:10;1.25;;;1.05;;
11533;SDS011;5823;50.588;8.462;2023-05-21T01:23:38;0.77;;;0.77;;
11533;SDS011;5823;50.588;8.462;2023-05-21T01:26:04;1.00;;;0.90;;
11533;SDS011;5823;50.588;8.462;2023-05-21T01:28:31;0.82;;;0.80;;
11533;SDS011;5823;50.588;8.462;2023-05-21T01:30:58;0.70;;;0.70;;
11533;SDS011;5823;50.588;8.462;2023-05-21T01:33:31;0.73;;;0.73;;
11533;SDS011;5823;50.588;8.462;2023-05-21T01:35:59;0.77;;;0.77;;
11533;SDS011;5823;50.588;8.462;2023-05-21T01:38:27;1.02;;;0.98;;
11533;SDS011;5823;50.588;8.462;2023-05-21T01:40:56;0.80;;;0.80;;
11533;SDS011;5823;50.588;8.462;2023-05-21T01:43:27;0.90;;;0.90;;
11533;SDS011;5823;50.588;8.462;2023-05-21T01:45:54;1.08;;;1.08;;
11533;SDS011;5823;50.588;8.462;2023-05-21T01:48:22;1.20;;;1.10;;
11533;SDS011;5823;50.588;8.462;2023-05-21T01:50:49;1.48;;;1.25;;
11533;SDS011;5823;50.588;8.462;2023-05-21T01:53:16;0.82;;;0.82;;
11533;SDS011;5823;50.588;8.462;2023-05-21T01:55:43;0.80;;;0.80;;
11533;SDS011;5823;50.588;8.462;2023-05-21T01:58:11;0.80;;;0.80;;
11533;SDS011;5823;50.588;8.462;2023-05-21T02:00:37;0.60;;;0.60;;
11533;SDS011;5823;50.588;8.462;2023-05-21T02:03:03;0.90;;;0.90;;
11533;SDS011;5823;50.588;8.462;2023-05-21T02:05:31;0.82;;;0.82;;
11533;SDS011;5823;50.588;8.462;2023-05-21T02:07:57;1.05;;;0.95;;
11533;SDS011;5823;50.588;8.462;2023-05-21T02:10:24;0.90;;;0.90;;
11533;SDS011;5823;50.588;8.462;2023-05-21T02:12:50;0.77;;;0.77;;
11533;SDS011;5823;50.588;8.462;2023-05-21T02:15:18;0.88;;;0.88;;
11533;SDS011;5823;50.588;8.462;2023-05-21T02:17:44;0.50;;;0.50;;
11533;SDS011;5823;50.588;8.462;2023-05-21T02:20:11;0.70;;;0.70;;
11533;SDS011;5823;50.588;8.462;2023-05-21T02:22:38;0.47;;;0.47;;
11533;SDS011;5823;50.588;8.462;2023-05-21T02:25:05;0.60;;;0.60;;
11533;SDS011;5823;50.588;8.462;2023-05-21T02:27:32;0.90;;;0.90;;
11533;SDS011;5823;50.588;8.462;2023-05-21T02:29:59;0.88;;;0.88;;
11533;SDS011;5823;50.588;8.462;2023-05-21T02:32:26;1.38;;;1.27;;
11533;SDS011;5823;50.588;8.462;2023-05-21T02:34:52;1.20;;;1.00;;
11533;SDS011;5823;50.588;8.462;2023-05-21T02:37:20;1.20;;;1.10;;
11533;SDS011;5823;50.588;8.462;2023-05-21T02:39:46;0.80;;;0.80;;
11533;SDS011;5823;50.588;8.462;2023-05-21T02:42:13;0.80;;;0.80;;
11533;SDS011;5823;50.588;8.462;2023-05-21T02:44:39;0.85;;;0.85;;
11533;SDS011;5823;50.588;8.462;2023-05-21T02:47:05;1.20;;;1.10;;
11533;SDS011;5823;50.588;8.462;2023-05-21T02:49:35;1.30;;;1.00;;
11533;SDS011;5823;50.588;8.462;2023-05-21T02:52:01;0.70;;;0.70;;
11533;SDS011;5823;50.588;8.462;2023-05-21T02:54:28;1.05;;;0.98;;
11533;SDS011;5823;50.588;8.462;2023-05-21T02:56:54;0.70;;;0.70;;
11533;SDS011;5823;50.588;8.462;2023-05-21T02:59:20;1.08;;;1.08;;
11533;SDS011;5823;50.588;8.462;2023-05-21T03:01:46;0.90;;;0.90;;
11533;SDS011;5823;50.588;8.462;2023-05-21T03:04:13;0.47;;;0.47;;
11533;SDS011;5823;50.588;8.462;2023-05-21T03:06:42;0.90;;;0.70;;
11533;SDS011;5823;50.588;8.462;2023-05-21T03:09:10;0.60;;;0.60;;
11533;SDS011;5823;50.588;8.462;2023-05-21T03:11:37;0.77;;;0.77;;
11533;SDS011;5823;50.588;8.462;2023-05-21T03:14:03;0.55;;;0.55;;
11533;SDS011;5823;50.588;8.462;2023-05-21T03:16:30;0.50;;;0.50;;
11533;SDS011;5823;50.588;8.462;2023-05-21T03:18:58;0.60;;;0.60;;
11533;SDS011;5823;50.588;8.462;2023-05-21T03:21:24;0.77;;;0.77;;
11533;SDS011;5823;50.588;8.462;2023-05-21T03:23:55;0.68;;;0.68;;
11533;SDS011;5823;50.588;8.462;2023-05-21T03:26:22;0.50;;;0.50;;
11533;SDS011;5823;50.588;8.462;2023-05-21T03:28:49;0.52;;;0.52;;
11533;SDS011;5823;50.588;8.462;2023-05-21T03:31:15;0.80;;;0.80;;
11533;SDS011;5823;50.588;8.462;2023-05-21T03:33:42;0.60;;;0.60;;
11533;SDS011;5823;50.588;8.462;2023-05-21T03:36:08;0.60;;;0.60;;
11533;SDS011;5823;50.588;8.462;2023-05-21T03:38:34;0.60;;;0.60;;
11533;SDS011;5823;50.588;8.462;2023-05-21T03:41:02;0.68;;;0.68;;
11533;SDS011;5823;50.588;8.462;2023-05-21T03:43:28;0.70;;;0.70;;
11533;SDS011;5823;50.588;8.462;2023-05-21T03:45:54;0.70;;;0.70;;
11533;SDS011;5823;50.588;8.462;2023-05-21T03:48:21;0.95;;;0.90;;
11533;SDS011;5823;50.588;8.462;2023-05-21T03:50:47;0.60;;;0.60;;
11533;SDS011;5823;50.588;8.462;2023-05-21T03:53:13;0.85;;;0.85;;
11533;SDS011;5823;50.588;8.462;2023-05-21T03:55:39;0.77;;;0.77;;
11533;SDS011;5823;50.588;8.462;2023-05-21T03:58:07;0.60;;;0.60;;
11533;SDS011;5823;50.588;8.462;2023-05-21T04:00:33;0.73;;;0.73;;
11533;SDS011;5823;50.588;8.462;2023-05-21T04:03:01;0.70;;;0.70;;
11533;SDS011;5823;50.588;8.462;2023-05-21T04:05:27;0.55;;;0.55;;
11533;SDS011;5823;50.588;8.462;2023-05-21T04:07:53;0.50;;;0.50;;
11533;SDS011;5823;50.588;8.462;2023-05-21T04:10:20;0.70;;;0.70;;
11533;SDS011;5823;50.588;8.462;2023-05-21T04:12:47;0.60;;;0.60;;
11533;SDS011;5823;50.588;8.462;2023-05-21T04:15:17;0.52;;;0.52;;
11533;SDS011;5823;50.588;8.462;2023-05-21T04:17:43;0.60;;;0.60;;
11533;SDS011;5823;50.588;8.462;2023-05-21T04:20:11;0.90;;;0.90;;
11533;SDS011;5823;50.588;8.462;2023-05-21T04:22:37;0.80;;;0.80;;
11533;SDS011;5823;50.588;8.462;2023-05-21T04:25:04;1.10;;;1.00;;
11533;SDS011;5823;50.588;8.462;2023-05-21T04:27:30;0.77;;;0.77;;
11533;SDS011;5823;50.588;8.462;2023-05-21T04:29:56;0.90;;;0.90;;
11533;SDS011;5823;50.588;8.462;2023-05-21T04:32:24;0.90;;;0.90;;
11533;SDS011;5823;50.588;8.462;2023-05-21T04:34:52;0.90;;;0.90;;
11533;SDS011;5823;50.588;8.462;2023-05-21T04:37:18;1.00;;;1.00;;
11533;SDS011;5823;50.588;8.462;2023-05-21T04:39:48;0.80;;;0.80;;
11533;SDS011;5823;50.588;8.462;2023-05-21T04:42:14;0.95;;;0.95;;
11533;SDS011;5823;50.588;8.462;2023-05-21T04:44:41;0.73;;;0.73;;
11533;SDS011;5823;50.588;8.462;2023-05-21T04:47:08;0.90;;;0.90;;
11533;SDS011;5823;50.588;8.462;2023-05-21T04:49:37;0.77;;;0.77;;
11533;SDS011;5823;50.588;8.462;2023-05-21T04:52:03;0.80;;;0.80;;
11533;SDS011;5823;50.588;8.462;2023-05-21T04:54:30;0.82;;;0.82;;
11533;SDS011;5823;50.588;8.462;2023-05-21T04:56:56;0.70;;;0.70;;
11533;SDS011;5823;50.588;8.462;2023-05-21T04:59:22;0.90;;;0.90;;
11533;SDS011;5823;50.588;8.462;2023-05-21T05:01:48;1.15;;;0.85;;
11533;SDS011;5823;50.588;8.462;2023-05-21T05:04:15;0.82;;;0.82;;
11533;SDS011;5823;50.588;8.462;2023-05-21T05:06:42;1.10;;;1.00;;
11533;SDS011;5823;50.588;8.462;2023-05-21T05:09:08;0.90;;;0.90;;
11533;SDS011;5823;50.588;8.462;2023-05-21T05:11:34;0.98;;;0.90;;
11533;SDS011;5823;50.588;8.462;2023-05-21T05:14:01;0.98;;;0.98;;
11533;SDS011;5823;50.588;8.462;2023-05-21T05:16:27;1.13;;;1.02;;
11533;SDS011;5823;50.588;8.462;2023-05-21T05:18:53;1.23;;;1.13;;
11533;SDS011;5823;50.588;8.462;2023-05-21T05:21:20;1.30;;;1.20;;
11533;SDS011;5823;50.588;8.462;2023-05-21T05:23:48;1.20;;;1.10;;
11533;SDS011;5823;50.588;8.462;2023-05-21T05:26:15;1.20;;;1.10;;
11533;SDS011;5823;50.588;8.462;2023-05-21T05:28:41;1.23;;;1.13;;
11533;SDS011;5823;50.588;8.462;2023-05-21T05:31:07;0.68;;;0.68;;
11533;SDS011;5823;50.588;8.462;2023-05-21T05:33:33;0.80;;;0.80;;
11533;SDS011;5823;50.588;8.462;2023-05-21T05:36:00;0.70;;;0.65;;
11533;SDS011;5823;50.588;8.462;2023-05-21T05:38:26;0.95;;;0.90;;
11533;SDS011;5823;50.588;8.462;2023-05-21T05:40:53;1.00;;;0.90;;
11533;SDS011;5823;50.588;8.462;2023-05-21T05:43:20;1.05;;;0.98;;
11533;SDS011;5823;50.588;8.462;2023-05-21T05:45:46;0.80;;;0.80;;
11533;SDS011;5823;50.588;8.462;2023-05-21T05:48:12;0.95;;;0.95;;
11533;SDS011;5823;50.588;8.462;2023-05-21T05:50:39;0.70;;;0.70;;
11533;SDS011;5823;50.588;8.462;2023-05-21T05:53:05;0.50;;;0.50;;
11533;SDS011;5823;50.588;8.462;2023-05-21T05:55:32;0.80;;;0.80;;
11533;SDS011;5823;50.588;8.462;2023-05-21T05:58:00;0.50;;;0.50;;
11533;SDS011;5823;50.588;8.462;2023-05-21T06:00:26;0.70;;;0.70;;
11533;SDS011;5823;50.588;8.462;2023-05-21T06:02:52;0.82;;;0.82;;
11533;SDS011;5823;50.588;8.462;2023-05-21T06:05:18;0.70;;;0.70;;
11533;SDS011;5823;50.588;8.462;2023-05-21T06:07:45;0.50;;;0.50;;
11533;SDS011;5823;50.588;8.462;2023-05-21T06:10:11;0.70;;;0.70;;
11533;SDS011;5823;50.588;8.462;2023-05-21T06:12:37;0.70;;;0.70;;
11533;SDS011;5823;50.588;8.462;2023-05-21T06:15:05;0.52;;;0.52;;
11533;SDS011;5823;50.588;8.462;2023-05-21T06:17:32;0.50;;;0.50;;
11533;SDS011;5823;50.588;8.462;2023-05-21T06:19:58;0.57;;;0.57;;
11533;SDS011;5823;50.588;8.462;2023-05-21T06:22:24;0.40;;;0.40;;
11533;SDS011;5823;50.588;8.462;2023-05-21T06:24:50;0.80;;;0.80;;
11533;SDS011;5823;50.588;8.462;2023-05-21T06:27:16;0.63;;;0.63;;
11533;SDS011;5823;50.588;8.462;2023-05-21T06:29:43;0.52;;;0.52;;
11533;SDS011;5823;50.588;8.462;2023-05-21T06:32:10;0.80;;;0.80;;
11533;SDS011;5823;50.588;8.462;2023-05-21T06:34:36;0.65;;;0.65;;
11533;SDS011;5823;50.588;8.462;2023-05-21T06:37:03;0.60;;;0.60;;
11533;SDS011;5823;50.588;8.462;2023-05-21T06:39:29;0.65;;;0.65;;
11533;SDS011;5823;50.588;8.462;2023-05-21T06:41:55;0.80;;;0.80;;
11533;SDS011;5823;50.588;8.462;2023-05-21T06:44:21;0.70;;;0.70;;
11533;SDS011;5823;50.588;8.462;2023-05-21T06:46:48;0.82;;;0.82;;
11533;SDS011;5823;50.588;8.462;2023-05-21T06:49:15;0.80;;;0.57;;
11533;SDS011;5823;50.588;8.462;2023-05-21T06:51:42;0.63;;;0.63;;
11533;SDS011;5823;50.588;8.462;2023-05-21T06:54:08;0.57;;;0.57;;
11533;SDS011;5823;50.588;8.462;2023-05-21T06:56:34;0.88;;;0.85;;
11533;SDS011;5823;50.588;8.462;2023-05-21T06:59:00;0.80;;;0.80;;
11533;SDS011;5823;50.588;8.462;2023-05-21T07:01:27;0.63;;;0.63;;
11533;SDS011;5823;50.588;8.462;2023-05-21T07:03:53;1.20;;;1.10;;
11533;SDS011;5823;50.588;8.462;2023-05-21T07:06:20;0.68;;;0.68;;
11533;SDS011;5823;50.588;8.462;2023-05-21T07:08:47;1.05;;;0.90;;
11533;SDS011;5823;50.588;8.462;2023-05-21T07:11:13;0.70;;;0.70;;
11533;SDS011;5823;50.588;8.462;2023-05-21T07:13:40;0.57;;;0.57;;
11533;SDS011;5823;50.588;8.462;2023-05-21T07:16:06;0.90;;;0.90;;
11533;SDS011;5823;50.588;8.462;2023-05-21T07:18:32;0.90;;;0.90;;
11533;SDS011;5823;50.588;8.462;2023-05-21T07:20:58;1.23;;;1.13;;
11533;SDS011;5823;50.588;8.462;2023-05-21T07:23:26;0.70;;;0.70;;
11533;SDS011;5823;50.588;8.462;2023-05-21T07:25:52;1.00;;;1.00;;
11533;SDS011;5823;50.588;8.462;2023-05-21T07:28:19;1.20;;;1.10;;
11533;SDS011;5823;50.588;8.462;2023-05-21T07:30:45;1.30;;;1.20;;
11533;SDS011;5823;50.588;8.462;2023-05-21T07:33:11;1.77;;;1.23;;
11533;SDS011;5823;50.588;8.462;2023-05-21T07:35:37;1.02;;;1.00;;
11533;SDS011;5823;50.588;8.462;2023-05-21T07:38:04;1.00;;;0.88;;
11533;SDS011;5823;50.588;8.462;2023-05-21T07:40:31;1.17;;;1.10;;
11533;SDS011;5823;50.588;8.462;2023-05-21T07:42:57;1.45;;;1.35;;
11533;SDS011;5823;50.588;8.462;2023-05-21T07:45:24;1.60;;;1.50;;
11533;SDS011;5823;50.588;8.462;2023-05-21T07:47:50;1.70;;;1.60;;
11533;SDS011;5823;50.588;8.462;2023-05-21T07:50:16;1.70;;;1.60;;
11533;SDS011;5823;50.588;8.462;2023-05-21T07:52:43;1.45;;;1.35;;
11533;SDS011;5823;50.588;8.462;2023-05-21T07:55:09;1.40;;;1.30;;
11533;SDS011;5823;50.588;8.462;2023-05-21T07:57:37;1.83;;;1.55;;
11533;SDS011;5823;50.588;8.462;2023-05-21T08:00:03;1.73;;;1.63;;
11533;SDS011;5823;50.588;8.462;2023-05-21T08:02:30;1.70;;;1.60;;
11533;SDS011;5823;50.588;8.462;2023-05-21T08:04:57;1.90;;;1.70;;
11533;SDS011;5823;50.588;8.462;2023-05-21T08:07:23;1.58;;;1.48;;
11533;SDS011;5823;50.588;8.462;2023-05-21T08:09:49;1.55;;;1.45;;
11533;SDS011;5823;50.588;8.462;2023-05-21T08:12:17;1.73;;;1.63;;
11533;SDS011;5823;50.588;8.462;2023-05-21T08:14:45;1.40;;;1.30;;
11533;SDS011;5823;50.588;8.462;2023-05-21T08:17:11;1.13;;;1.08;;
11533;SDS011;5823;50.588;8.462;2023-05-21T08:19:37;1.20;;;1.10;;
11533;SDS011;5823;50.588;8.462;2023-05-21T08:22:04;1.50;;;1.20;;
11533;SDS011;5823;50.588;8.462;2023-05-21T08:24:31;1.40;;;1.30;;
11533;SDS011;5823;50.588;8.462;2023-05-21T08:26:57;1.30;;;1.20;;
11533;SDS011;5823;50.588;8.462;2023-05-21T08:29:24;1.45;;;1.35;;
11533;SDS011;5823;50.588;8.462;2023-05-21T08:31:51;1.30;;;1.20;;
11533;SDS011;5823;50.588;8.462;2023-05-21T08:34:18;1.55;;;1.45;;
11533;SDS011;5823;50.588;8.462;2023-05-21T08:36:44;1.20;;;1.10;;
11533;SDS011;5823;50.588;8.462;2023-05-21T08:39:11;1.50;;;1.40;;
11533;SDS011;5823;50.588;8.462;2023-05-21T08:41:38;1.40;;;1.30;;
11533;SDS011;5823;50.588;8.462;2023-05-21T08:44:05;1.25;;;1.15;;
11533;SDS011;5823;50.588;8.462;2023-05-21T08:46:33;1.30;;;1.20;;
11533;SDS011;5823;50.588;8.462;2023-05-21T08:49:02;1.20;;;1.13;;
11533;SDS011;5823;50.588;8.462;2023-05-21T08:51:29;1.00;;;1.00;;
11533;SDS011;5823;50.588;8.462;2023-05-21T08:53:55;1.30;;;1.20;;
11533;SDS011;5823;50.588;8.462;2023-05-21T08:56:22;1.25;;;1.15;;
11533;SDS011;5823;50.588;8.462;2023-05-21T08:58:49;1.30;;;1.20;;
11533;SDS011;5823;50.588;8.462;2023-05-21T09:01:16;1.00;;;1.00;;
11533;SDS011;5823;50.588;8.462;2023-05-21T09:03:43;1.23;;;1.13;;
11533;SDS011;5823;50.588;8.462;2023-05-21T09:06:12;1.80;;;1.70;;
11533;SDS011;5823;50.588;8.462;2023-05-21T09:08:41;1.58;;;1.48;;
11533;SDS011;5823;50.588;8.462;2023-05-21T09:11:08;1.30;;;1.20;;
11533;SDS011;5823;50.588;8.462;2023-05-21T09:13:34;1.80;;;1.70;;
11533;SDS011;5823;50.588;8.462;2023-05-21T09:16:01;1.60;;;1.50;;
11533;SDS011;5823;50.588;8.462;2023-05-21T09:18:27;1.95;;;1.85;;
11533;SDS011;5823;50.588;8.462;2023-05-21T09:20:54;2.03;;;1.83;;
11533;SDS011;5823;50.588;8.462;2023-05-21T09:23:21;1.65;;;1.55;;
11533;SDS011;5823;50.588;8.462;2023-05-21T09:25:48;1.60;;;1.50;;
11533;SDS011;5823;50.588;8.462;2023-05-21T09:28:16;1.40;;;1.30;;
11533;SDS011;5823;50.588;8.462;2023-05-21T09:30:43;1.45;;;1.35;;
11533;SDS011;5823;50.588;8.462;2023-05-21T09:33:09;1.63;;;1.52;;
11533;SDS011;5823;50.588;8.462;2023-05-21T09:35:36;1.50;;;1.40;;
11533;SDS011;5823;50.588;8.462;2023-05-21T09:38:03;1.60;;;1.50;;
11533;SDS011;5823;50.588;8.462;2023-05-21T09:40:34;2.30;;;2.10;;
11533;SDS011;5823;50.588;8.462;2023-05-21T09:43:01;2.20;;;2.00;;
11533;SDS011;5823;50.588;8.462;2023-05-21T09:45:27;2.05;;;1.95;;
11533;SDS011;5823;50.588;8.462;2023-05-21T09:47:54;1.92;;;1.83;;
11533;SDS011;5823;50.588;8.462;2023-05-21T09:50:20;2.13;;;2.03;;
11533;SDS011;5823;50.588;8.462;2023-05-21T09:52:47;1.63;;;1.52;;
11533;SDS011;5823;50.588;8.462;2023-05-21T09:55:15;1.60;;;1.50;;
11533;SDS011;5823;50.588;8.462;2023-05-21T09:57:43;2.10;;;1.90;;
11533;SDS011;5823;50.588;8.462;2023-05-21T10:00:16;2.03;;;1.92;;
11533;SDS011;5823;50.588;8.462;2023-05-21T10:02:43;2.40;;;2.20;;
11533;SDS011;5823;50.588;8.462;2023-05-21T10:05:10;2.40;;;2.20;;
11533;SDS011;5823;50.588;8.462;2023-05-21T10:07:36;1.90;;;1.80;;
11533;SDS011;5823;50.588;8.462;2023-05-21T10:10:04;2.05;;;1.95;;
11533;SDS011;5823;50.588;8.462;2023-05-21T10:12:31;2.22;;;2.03;;
11533;SDS011;5823;50.588;8.462;2023-05-21T10:14:59;1.70;;;1.60;;
11533;SDS011;5823;50.588;8.462;2023-05-21T10:17:26;1.60;;;1.50;;
11533;SDS011;5823;50.588;8.462;2023-05-21T10:19:53;1.60;;;1.50;;
11533;SDS011;5823;50.588;8.462;2023-05-21T10:22:21;1.67;;;1.58;;
11533;SDS011;5823;50.588;8.462;2023-05-21T10:24:47;1.60;;;1.50;;
11533;SDS011;5823;50.588;8.462;2023-05-21T10:27:13;1.90;;;1.80;;
11533;SDS011;5823;50.588;8.462;2023-05-21T10:29:40;1.70;;;1.60;;
11533;SDS011;5823;50.588;8.462;2023-05-21T10:32:07;1.60;;;1.50;;
11533;SDS011;5823;50.588;8.462;2023-05-21T10:34:34;1.40;;;1.30;;
11533;SDS011;5823;50.588;8.462;2023-05-21T10:37:02;1.92;;;1.83;;
11533;SDS011;5823;50.588;8.462;2023-05-21T10:39:29;2.05;;;1.95;;
11533;SDS011;5823;50.588;8.462;2023-05-21T10:42:13;2.25;;;2.05;;
11533;SDS011;5823;50.588;8.462;2023-05-21T10:44:43;1.95;;;1.85;;
11533;SDS011;5823;50.588;8.462;2023-05-21T10:47:30;2.30;;;2.10;;
11533;SDS011;5823;50.588;8.462;2023-05-21T10:52:51;2.13;;;1.92;;
11533;SDS011;5823;50.588;8.462;2023-05-21T10:55:24;2.00;;;1.80;;
11533;SDS011;5823;50.588;8.462;2023-05-21T10:57:59;2.70;;;2.50;;
11533;SDS011;5823;50.588;8.462;2023-05-21T11:00:27;2.28;;;2.15;;
11533;SDS011;5823;50.588;8.462;2023-05-21T11:02:56;2.40;;;2.20;;
11533;SDS011;5823;50.588;8.462;2023-05-21T11:05:38;2.10;;;2.00;;
11533;SDS011;5823;50.588;8.462;2023-05-21T11:08:11;2.00;;;1.90;;
11533;SDS011;5823;50.588;8.462;2023-05-21T11:10:43;2.10;;;1.98;;
11533;SDS011;5823;50.588;8.462;2023-05-21T11:13:10;3.08;;;2.15;;
11533;SDS011;5823;50.588;8.462;2023-05-21T11:18:23;1.70;;;1.60;;
11533;SDS011;5823;50.588;8.462;2023-05-21T11:21:10;2.50;;;2.30;;
11533;SDS011;5823;50.588;8.462;2023-05-21T11:23:46;1.80;;;1.70;;
11533;SDS011;5823;50.588;8.462;2023-05-21T11:26:14;2.15;;;1.95;;
11533;SDS011;5823;50.588;8.462;2023-05-21T11:28:40;1.60;;;1.50;;
11533;SDS011;5823;50.588;8.462;2023-05-21T11:31:22;1.40;;;1.30;;
11533;SDS011;5823;50.588;8.462;2023-05-21T11:36:31;1.75;;;1.65;;
11533;SDS011;5823;50.588;8.462;2023-05-21T11:39:06;2.03;;;1.88;;
11533;SDS011;5823;50.588;8.462;2023-05-21T11:41:48;1.98;;;1.88;;
11533;SDS011;5823;50.588;8.462;2023-05-21T11:44:14;1.65;;;1.55;;
11533;SDS011;5823;50.588;8.462;2023-05-21T11:46:41;1.33;;;1.23;;
11533;SDS011;5823;50.588;8.462;2023-05-21T11:49:07;1.40;;;1.30;;
11533;SDS011;5823;50.588;8.462;2023-05-21T11:51:35;2.13;;;1.92;;
11533;SDS011;5823;50.588;8.462;2023-05-21T11:54:01;2.40;;;2.20;;
11533;SDS011;5823;50.588;8.462;2023-05-21T11:56:28;3.05;;;2.67;;
11533;SDS011;5823;50.588;8.462;2023-05-21T11:58:55;2.80;;;2.60;;
11533;SDS011;5823;50.588;8.462;2023-05-21T12:01:22;2.30;;;2.10;;
11533;SDS011;5823;50.588;8.462;2023-05-21T12:03:48;2.28;;;2.08;;
11533;SDS011;5823;50.588;8.462;2023-05-21T12:06:14;2.63;;;2.42;;
11533;SDS011;5823;50.588;8.462;2023-05-21T12:08:42;2.40;;;2.20;;
11533;SDS011;5823;50.588;8.462;2023-05-21T12:11:09;2.65;;;2.45;;
11533;SDS011;5823;50.588;8.462;2023-05-21T12:13:35;2.30;;;2.10;;
11533;SDS011;5823;50.588;8.462;2023-05-21T12:16:02;1.80;;;1.70;;
11533;SDS011;5823;50.588;8.462;2023-05-21T12:18:28;1.85;;;1.75;;
11533;SDS011;5823;50.588;8.462;2023-05-21T12:20:54;2.40;;;2.20;;
11533;SDS011;5823;50.588;8.462;2023-05-21T12:23:22;2.10;;;2.00;;
11533;SDS011;5823;50.588;8.462;2023-05-21T12:25:50;1.83;;;1.73;;
11533;SDS011;5823;50.588;8.462;2023-05-21T12:28:16;2.65;;;2.45;;
11533;SDS011;5823;50.588;8.462;2023-05-21T12:30:42;2.38;;;2.20;;
11533;SDS011;5823;50.588;8.462;2023-05-21T12:33:08;2.70;;;2.50;;
11533;SDS011;5823;50.588;8.462;2023-05-21T12:35:36;2.88;;;2.67;;
11533;SDS011;5823;50.588;8.462;2023-05-21T12:38:02;2.53;;;2.33;;
11533;SDS011;5823;50.588;8.462;2023-05-21T12:40:34;3.88;;;3.58;;
11533;SDS011;5823;50.588;8.462;2023-05-21T12:43:03;2.67;;;2.47;;
11533;SDS011;5823;50.588;8.462;2023-05-21T12:45:29;2.60;;;2.40;;
11533;SDS011;5823;50.588;8.462;2023-05-21T12:47:56;3.45;;;3.15;;
11533;SDS011;5823;50.588;8.462;2023-05-21T12:50:22;3.17;;;2.97;;
11533;SDS011;5823;50.588;8.462;2023-05-21T12:52:48;3.50;;;3.20;;
11533;SDS011;5823;50.588;8.462;2023-05-21T12:55:18;2.95;;;2.70;;
11533;SDS011;5823;50.588;8.462;2023-05-21T12:57:46;3.33;;;3.13;;
11533;SDS011;5823;50.588;8.462;2023-05-21T13:00:14;2.90;;;2.70;;
11533;SDS011;5823;50.588;8.462;2023-05-21T13:02:48;2.80;;;2.60;;
11533;SDS011;5823;50.588;8.462;2023-05-21T13:05:14;2.40;;;2.20;;
11533;SDS011;5823;50.588;8.462;2023-05-21T13:07:41;2.40;;;2.20;;
11533;SDS011;5823;50.588;8.462;2023-05-21T13:10:08;2.60;;;2.40;;
11533;SDS011;5823;50.588;8.462;2023-05-21T13:12:36;2.60;;;2.40;;
11533;SDS011;5823;50.588;8.462;2023-05-21T13:15:02;3.00;;;2.80;;
11533;SDS011;5823;50.588;8.462;2023-05-21T13:17:31;2.75;;;2.55;;
11533;SDS011;5823;50.588;8.462;2023-05-21T13:20:04;2.60;;;2.40;;
11533;SDS011;5823;50.588;8.462;2023-05-21T13:22:31;2.00;;;1.90;;
11533;SDS011;5823;50.588;8.462;2023-05-21T13:24:57;2.13;;;1.92;;
11533;SDS011;5823;50.588;8.462;2023-05-21T13:27:24;2.63;;;2.42;;
11533;SDS011;5823;50.588;8.462;2023-05-21T13:29:50;2.60;;;2.40;;
11533;SDS011;5823;50.588;8.462;2023-05-21T13:32:16;2.60;;;2.40;;
11533;SDS011;5823;50.588;8.462;2023-05-21T13:34:44;2.50;;;2.30;;
11533;SDS011;5823;50.588;8.462;2023-05-21T13:37:11;3.38;;;3.10;;
11533;SDS011;5823;50.588;8.462;2023-05-21T13:39:38;3.45;;;3.15;;
11533;SDS011;5823;50.588;8.462;2023-05-21T13:42:04;3.08;;;2.88;;
11533;SDS011;5823;50.588;8.462;2023-05-21T13:44:31;3.42;;;3.13;;
11533;SDS011;5823;50.588;8.462;2023-05-21T13:47:00;2.90;;;2.70;;
11533;SDS011;5823;50.588;8.462;2023-05-21T13:49:26;3.40;;;2.50;;
11533;SDS011;5823;50.588;8.462;2023-05-21T13:51:53;3.20;;;3.00;;
11533;SDS011;5823;50.588;8.462;2023-05-21T13:54:20;2.58;;;2.38;;
11533;SDS011;5823;50.588;8.462;2023-05-21T13:56:46;3.00;;;2.80;;
11533;SDS011;5823;50.588;8.462;2023-05-21T13:59:12;2.83;;;2.60;;
11533;SDS011;5823;50.588;8.462;2023-05-21T14:01:38;2.22;;;2.03;;
11533;SDS011;5823;50.588;8.462;2023-05-21T14:04:05;2.00;;;1.90;;
11533;SDS011;5823;50.588;8.462;2023-05-21T14:06:31;2.35;;;2.15;;
11533;SDS011;5823;50.588;8.462;2023-05-21T14:08:59;2.85;;;2.65;;
11533;SDS011;5823;50.588;8.462;2023-05-21T14:11:25;3.65;;;3.20;;
11533;SDS011;5823;50.588;8.462;2023-05-21T14:13:51;3.95;;;3.65;;
11533;SDS011;5823;50.588;8.462;2023-05-21T14:16:18;3.33;;;3.03;;
11533;SDS011;5823;50.588;8.462;2023-05-21T14:18:44;2.60;;;2.40;;
11533;SDS011;5823;50.588;8.462;2023-05-21T14:21:10;2.90;;;2.70;;
11533;SDS011;5823;50.588;8.462;2023-05-21T14:23:36;3.00;;;2.80;;
11533;SDS011;5823;50.588;8.462;2023-05-21T14:26:04;3.72;;;3.13;;
11533;SDS011;5823;50.588;8.462;2023-05-21T14:28:30;2.70;;;2.50;;
11533;SDS011;5823;50.588;8.462;2023-05-21T14:30:56;2.70;;;2.50;;
11533;SDS011;5823;50.588;8.462;2023-05-21T14:33:23;2.90;;;2.70;;
11533;SDS011;5823;50.588;8.462;2023-05-21T14:35:49;2.75;;;2.55;;
11533;SDS011;5823;50.588;8.462;2023-05-21T14:38:15;2.50;;;2.30;;
11533;SDS011;5823;50.588;8.462;2023-05-21T14:40:42;2.55;;;2.35;;
11533;SDS011;5823;50.588;8.462;2023-05-21T14:43:09;2.63;;;2.42;;
11533;SDS011;5823;50.588;8.462;2023-05-21T14:45:35;2.53;;;2.33;;
11533;SDS011;5823;50.588;8.462;2023-05-21T14:48:02;2.00;;;1.80;;
11533;SDS011;5823;50.588;8.462;2023-05-21T14:50:32;1.98;;;1.88;;
11533;SDS011;5823;50.588;8.462;2023-05-21T14:52:59;2.30;;;2.10;;
11533;SDS011;5823;50.588;8.462;2023-05-21T14:55:28;2.40;;;2.20;;
11533;SDS011;5823;50.588;8.462;2023-05-21T14:57:54;2.17;;;1.98;;
11533;SDS011;5823;50.588;8.462;2023-05-21T15:00:22;1.88;;;1.77;;
11533;SDS011;5823;50.588;8.462;2023-05-21T15:02:48;5.25;;;4.75;;
11533;SDS011;5823;50.588;8.462;2023-05-21T15:05:14;3.92;;;3.63;;
11533;SDS011;5823;50.588;8.462;2023-05-21T15:07:40;3.05;;;2.85;;